sensor_id;sensor_type;location;lat;lon;timestamp;P1;durP1;ratioP1;P2;durP2;ratioP2
11427;SDS011;5770;44.504;11.346;2023-07-13T00:01:44;23.00;;;7.50;;
11427;SDS011;5770;44.504;11.346;2023-07-13T00:04:14;19.42;;;6.80;;
11427;SDS011;5770;44.504;11.346;2023-07-13T00:06:44;19.50;;;6.65;;
11427;SDS011;5770;44.504;11.346;2023-07-13T00:09:11;15.43;;;7.25;;
11427;SDS011;5770;44.504;11.346;2023-07-13T00:11:39;22.58;;;6.85;;
11427;SDS011;5770;44.504;11.346;2023-07-13T00:14:06;13.82;;;7.03;;
11427;SDS011;5770;44.504;11.346;2023-07-13T00:16:34;15.20;;;6.60;;
11427;SDS011;5770;44.504;11.346;2023-07-13T00:19:02;14.73;;;6.68;;
11427;SDS011;5770;44.504;11.346;2023-07-13T00:21:29;19.70;;;6.82;;
11427;SDS011;5770;44.504;11.346;2023-07-13T00:23:57;20.65;;;7.80;;
11427;SDS011;5770;44.504;11.346;2023-07-13T00:26:25;17.73;;;6.93;;
11427;SDS011;5770;44.504;11.346;2023-07-13T00:28:52;17.80;;;7.57;;
11427;SDS011;5770;44.504;11.346;2023-07-13T00:31:19;13.00;;;6.45;;
11427;SDS011;5770;44.504;11.346;2023-07-13T00:33:46;19.58;;;7.05;;
11427;SDS011;5770;44.504;11.346;2023-07-13T00:36:14;16.23;;;6.68;;
11427;SDS011;5770;44.504;11.346;2023-07-13T00:38:41;19.83;;;6.75;;
11427;SDS011;5770;44.504;11.346;2023-07-13T00:41:10;16.25;;;6.80;;
11427;SDS011;5770;44.504;11.346;2023-07-13T00:43:38;12.38;;;6.60;;
11427;SDS011;5770;44.504;11.346;2023-07-13T00:46:13;15.75;;;6.95;;
11427;SDS011;5770;44.504;11.346;2023-07-13T00:48:47;11.18;;;6.60;;
11427;SDS011;5770;44.504;11.346;2023-07-13T00:51:19;17.55;;;7.22;;
11427;SDS011;5770;44.504;11.346;2023-07-13T00:53:51;11.65;;;6.30;;
11427;SDS011;5770;44.504;11.346;2023-07-13T00:56:22;14.05;;;6.32;;
11427;SDS011;5770;44.504;11.346;2023-07-13T00:58:50;19.67;;;7.22;;
11427;SDS011;5770;44.504;11.346;2023-07-13T01:01:17;16.98;;;6.68;;
11427;SDS011;5770;44.504;11.346;2023-07-13T01:03:44;16.08;;;7.13;;
11427;SDS011;5770;44.504;11.346;2023-07-13T01:06:11;15.30;;;6.88;;
11427;SDS011;5770;44.504;11.346;2023-07-13T01:08:39;14.57;;;7.35;;
11427;SDS011;5770;44.504;11.346;2023-07-13T01:11:06;13.68;;;7.00;;
11427;SDS011;5770;44.504;11.346;2023-07-13T01:13:35;17.95;;;6.97;;
11427;SDS011;5770;44.504;11.346;2023-07-13T01:16:03;16.77;;;7.65;;
11427;SDS011;5770;44.504;11.346;2023-07-13T01:18:33;16.55;;;7.55;;
11427;SDS011;5770;44.504;11.346;2023-07-13T01:21:01;18.55;;;8.00;;
11427;SDS011;5770;44.504;11.346;2023-07-13T01:23:29;19.67;;;7.72;;
11427;SDS011;5770;44.504;11.346;2023-07-13T01:25:57;12.57;;;8.45;;
11427;SDS011;5770;44.504;11.346;2023-07-13T01:28:25;17.25;;;8.75;;
11427;SDS011;5770;44.504;11.346;2023-07-13T01:30:53;12.02;;;8.15;;
11427;SDS011;5770;44.504;11.346;2023-07-13T01:33:21;13.43;;;8.00;;
11427;SDS011;5770;44.504;11.346;2023-07-13T01:35:47;16.80;;;7.57;;
11427;SDS011;5770;44.504;11.346;2023-07-13T01:38:19;9.27;;;7.10;;
11427;SDS011;5770;44.504;11.346;2023-07-13T01:40:47;15.40;;;6.82;;
11427;SDS011;5770;44.504;11.346;2023-07-13T01:43:15;13.88;;;6.93;;
11427;SDS011;5770;44.504;11.346;2023-07-13T01:45:42;17.17;;;7.10;;
11427;SDS011;5770;44.504;11.346;2023-07-13T01:48:10;16.73;;;6.93;;
11427;SDS011;5770;44.504;11.346;2023-07-13T01:50:37;12.02;;;6.40;;
11427;SDS011;5770;44.504;11.346;2023-07-13T01:53:04;13.73;;;6.13;;
11427;SDS011;5770;44.504;11.346;2023-07-13T01:55:33;12.85;;;5.75;;
11427;SDS011;5770;44.504;11.346;2023-07-13T01:58:01;14.60;;;5.65;;
11427;SDS011;5770;44.504;11.346;2023-07-13T02:00:28;9.25;;;5.85;;
11427;SDS011;5770;44.504;11.346;2023-07-13T02:02:55;11.77;;;5.25;;
11427;SDS011;5770;44.504;11.346;2023-07-13T02:05:22;10.25;;;5.38;;
11427;SDS011;5770;44.504;11.346;2023-07-13T02:07:49;13.77;;;5.68;;
11427;SDS011;5770;44.504;11.346;2023-07-13T02:10:18;12.02;;;5.70;;
11427;SDS011;5770;44.504;11.346;2023-07-13T02:12:47;12.90;;;5.88;;
11427;SDS011;5770;44.504;11.346;2023-07-13T02:15:17;12.65;;;5.32;;
11427;SDS011;5770;44.504;11.346;2023-07-13T02:17:44;10.38;;;5.63;;
11427;SDS011;5770;44.504;11.346;2023-07-13T02:20:11;14.55;;;6.30;;
11427;SDS011;5770;44.504;11.346;2023-07-13T02:22:38;14.02;;;5.97;;
11427;SDS011;5770;44.504;11.346;2023-07-13T02:25:06;12.43;;;5.88;;
11427;SDS011;5770;44.504;11.346;2023-07-13T02:27:33;14.63;;;6.15;;
11427;SDS011;5770;44.504;11.346;2023-07-13T02:30:05;13.75;;;5.75;;
11427;SDS011;5770;44.504;11.346;2023-07-13T02:32:32;17.40;;;6.57;;
11427;SDS011;5770;44.504;11.346;2023-07-13T02:35:00;14.73;;;6.07;;
11427;SDS011;5770;44.504;11.346;2023-07-13T02:37:28;11.75;;;5.53;;
11427;SDS011;5770;44.504;11.346;2023-07-13T02:39:55;12.43;;;5.35;;
11427;SDS011;5770;44.504;11.346;2023-07-13T02:42:22;8.80;;;6.00;;
11427;SDS011;5770;44.504;11.346;2023-07-13T02:44:49;10.68;;;5.18;;
11427;SDS011;5770;44.504;11.346;2023-07-13T02:47:18;12.57;;;5.35;;
11427;SDS011;5770;44.504;11.346;2023-07-13T02:49:45;12.35;;;5.70;;
11427;SDS011;5770;44.504;11.346;2023-07-13T02:52:12;12.88;;;6.05;;
11427;SDS011;5770;44.504;11.346;2023-07-13T02:54:39;12.73;;;5.68;;
11427;SDS011;5770;44.504;11.346;2023-07-13T02:57:06;15.60;;;5.57;;
11427;SDS011;5770;44.504;11.346;2023-07-13T02:59:33;11.18;;;5.88;;
11427;SDS011;5770;44.504;11.346;2023-07-13T03:02:01;13.30;;;5.10;;
11427;SDS011;5770;44.504;11.346;2023-07-13T03:04:30;12.32;;;5.57;;
11427;SDS011;5770;44.504;11.346;2023-07-13T03:06:57;10.68;;;5.28;;
11427;SDS011;5770;44.504;11.346;2023-07-13T03:09:24;12.52;;;5.15;;
11427;SDS011;5770;44.504;11.346;2023-07-13T03:11:52;12.02;;;5.28;;
11427;SDS011;5770;44.504;11.346;2023-07-13T03:14:20;10.35;;;5.10;;
11427;SDS011;5770;44.504;11.346;2023-07-13T03:16:47;10.98;;;4.55;;
11427;SDS011;5770;44.504;11.346;2023-07-13T03:19:15;12.55;;;4.53;;
11427;SDS011;5770;44.504;11.346;2023-07-13T03:21:43;9.00;;;4.82;;
11427;SDS011;5770;44.504;11.346;2023-07-13T03:24:10;9.30;;;4.95;;
11427;SDS011;5770;44.504;11.346;2023-07-13T03:26:38;14.32;;;5.05;;
11427;SDS011;5770;44.504;11.346;2023-07-13T03:29:05;7.70;;;4.47;;
11427;SDS011;5770;44.504;11.346;2023-07-13T03:31:32;11.50;;;4.32;;
11427;SDS011;5770;44.504;11.346;2023-07-13T03:34:00;17.42;;;4.60;;
11427;SDS011;5770;44.504;11.346;2023-07-13T03:36:28;6.65;;;4.30;;
11427;SDS011;5770;44.504;11.346;2023-07-13T03:38:59;8.27;;;4.10;;
11427;SDS011;5770;44.504;11.346;2023-07-13T03:41:27;7.93;;;4.10;;
11427;SDS011;5770;44.504;11.346;2023-07-13T03:43:54;11.60;;;4.90;;
11427;SDS011;5770;44.504;11.346;2023-07-13T03:46:21;8.57;;;4.20;;
11427;SDS011;5770;44.504;11.346;2023-07-13T03:48:48;9.13;;;3.83;;
11427;SDS011;5770;44.504;11.346;2023-07-13T03:51:15;12.73;;;3.97;;
11427;SDS011;5770;44.504;11.346;2023-07-13T03:53:44;9.98;;;4.03;;
11427;SDS011;5770;44.504;11.346;2023-07-13T03:56:13;10.55;;;4.75;;
11427;SDS011;5770;44.504;11.346;2023-07-13T03:58:41;12.98;;;4.90;;
11427;SDS011;5770;44.504;11.346;2023-07-13T04:01:09;17.35;;;5.03;;
11427;SDS011;5770;44.504;11.346;2023-07-13T04:03:37;10.48;;;3.78;;
11427;SDS011;5770;44.504;11.346;2023-07-13T04:06:05;8.20;;;4.40;;
11427;SDS011;5770;44.504;11.346;2023-07-13T04:08:33;9.45;;;4.97;;
11427;SDS011;5770;44.504;11.346;2023-07-13T04:11:01;5.97;;;3.95;;
11427;SDS011;5770;44.504;11.346;2023-07-13T04:13:30;9.43;;;4.70;;
11427;SDS011;5770;44.504;11.346;2023-07-13T04:15:57;10.15;;;5.13;;
11427;SDS011;5770;44.504;11.346;2023-07-13T04:18:24;7.57;;;4.50;;
11427;SDS011;5770;44.504;11.346;2023-07-13T04:20:51;9.68;;;4.30;;
11427;SDS011;5770;44.504;11.346;2023-07-13T04:23:18;11.77;;;4.90;;
11427;SDS011;5770;44.504;11.346;2023-07-13T04:25:46;10.95;;;4.47;;
11427;SDS011;5770;44.504;11.346;2023-07-13T04:28:14;8.63;;;4.72;;
11427;SDS011;5770;44.504;11.346;2023-07-13T04:30:43;8.80;;;4.88;;
11427;SDS011;5770;44.504;11.346;2023-07-13T04:33:11;7.63;;;4.80;;
11427;SDS011;5770;44.504;11.346;2023-07-13T04:35:38;13.00;;;4.90;;
11427;SDS011;5770;44.504;11.346;2023-07-13T04:38:05;10.35;;;4.78;;
11427;SDS011;5770;44.504;11.346;2023-07-13T04:40:32;11.63;;;4.70;;
11427;SDS011;5770;44.504;11.346;2023-07-13T04:42:59;10.35;;;4.85;;
11427;SDS011;5770;44.504;11.346;2023-07-13T04:45:26;11.35;;;5.20;;
11427;SDS011;5770;44.504;11.346;2023-07-13T04:47:55;8.80;;;4.82;;
11427;SDS011;5770;44.504;11.346;2023-07-13T04:50:22;9.63;;;4.40;;
11427;SDS011;5770;44.504;11.346;2023-07-13T04:52:49;17.13;;;5.20;;
11427;SDS011;5770;44.504;11.346;2023-07-13T04:55:17;7.13;;;4.35;;
11427;SDS011;5770;44.504;11.346;2023-07-13T04:57:44;8.70;;;4.88;;
11427;SDS011;5770;44.504;11.346;2023-07-13T05:00:12;10.73;;;5.22;;
11427;SDS011;5770;44.504;11.346;2023-07-13T05:02:42;8.43;;;5.13;;
11427;SDS011;5770;44.504;11.346;2023-07-13T05:05:11;8.63;;;4.43;;
11427;SDS011;5770;44.504;11.346;2023-07-13T05:07:38;8.00;;;4.57;;
11427;SDS011;5770;44.504;11.346;2023-07-13T05:10:06;10.90;;;5.07;;
11427;SDS011;5770;44.504;11.346;2023-07-13T05:12:34;12.18;;;4.97;;
11427;SDS011;5770;44.504;11.346;2023-07-13T05:15:01;12.27;;;5.13;;
11427;SDS011;5770;44.504;11.346;2023-07-13T05:17:29;10.25;;;4.95;;
11427;SDS011;5770;44.504;11.346;2023-07-13T05:19:56;10.75;;;5.40;;
11427;SDS011;5770;44.504;11.346;2023-07-13T05:22:24;15.93;;;6.07;;
11427;SDS011;5770;44.504;11.346;2023-07-13T05:24:54;10.50;;;5.13;;
11427;SDS011;5770;44.504;11.346;2023-07-13T05:27:22;13.32;;;5.20;;
11427;SDS011;5770;44.504;11.346;2023-07-13T05:29:49;13.85;;;5.25;;
11427;SDS011;5770;44.504;11.346;2023-07-13T05:32:17;12.40;;;4.82;;
11427;SDS011;5770;44.504;11.346;2023-07-13T05:34:45;13.38;;;5.15;;
11427;SDS011;5770;44.504;11.346;2023-07-13T05:37:12;15.55;;;5.07;;
11427;SDS011;5770;44.504;11.346;2023-07-13T05:39:40;12.55;;;5.95;;
11427;SDS011;5770;44.504;11.346;2023-07-13T05:42:07;12.73;;;4.38;;
11427;SDS011;5770;44.504;11.346;2023-07-13T05:44:34;19.00;;;5.05;;
11427;SDS011;5770;44.504;11.346;2023-07-13T05:47:02;12.85;;;5.05;;
11427;SDS011;5770;44.504;11.346;2023-07-13T05:49:29;8.45;;;4.95;;
11427;SDS011;5770;44.504;11.346;2023-07-13T05:51:56;9.88;;;4.30;;
11427;SDS011;5770;44.504;11.346;2023-07-13T05:54:23;13.40;;;4.50;;
11427;SDS011;5770;44.504;11.346;2023-07-13T05:56:51;9.48;;;4.22;;
11427;SDS011;5770;44.504;11.346;2023-07-13T05:59:18;15.50;;;4.22;;
11427;SDS011;5770;44.504;11.346;2023-07-13T06:01:45;8.65;;;3.95;;
11427;SDS011;5770;44.504;11.346;2023-07-13T06:04:14;10.00;;;4.30;;
11427;SDS011;5770;44.504;11.346;2023-07-13T06:06:41;12.98;;;4.55;;
11427;SDS011;5770;44.504;11.346;2023-07-13T06:09:09;8.90;;;4.35;;
11427;SDS011;5770;44.504;11.346;2023-07-13T06:11:36;9.10;;;4.03;;
11427;SDS011;5770;44.504;11.346;2023-07-13T06:14:04;8.82;;;4.13;;
11427;SDS011;5770;44.504;11.346;2023-07-13T06:16:31;9.85;;;4.30;;
11427;SDS011;5770;44.504;11.346;2023-07-13T06:18:58;7.55;;;4.00;;
11427;SDS011;5770;44.504;11.346;2023-07-13T06:24:18;17.17;;;4.22;;
11427;SDS011;5770;44.504;11.346;2023-07-13T06:26:45;11.35;;;4.10;;
11427;SDS011;5770;44.504;11.346;2023-07-13T06:29:13;10.93;;;3.70;;
11427;SDS011;5770;44.504;11.346;2023-07-13T06:31:40;7.15;;;3.50;;
11427;SDS011;5770;44.504;11.346;2023-07-13T06:34:07;6.90;;;3.42;;
11427;SDS011;5770;44.504;11.346;2023-07-13T06:36:35;10.52;;;3.72;;
11427;SDS011;5770;44.504;11.346;2023-07-13T06:39:03;10.85;;;3.72;;
11427;SDS011;5770;44.504;11.346;2023-07-13T06:41:30;8.30;;;3.88;;
11427;SDS011;5770;44.504;11.346;2023-07-13T06:43:58;10.43;;;3.45;;
11427;SDS011;5770;44.504;11.346;2023-07-13T06:46:28;5.70;;;3.10;;
11427;SDS011;5770;44.504;11.346;2023-07-13T06:48:55;10.80;;;3.35;;
11427;SDS011;5770;44.504;11.346;2023-07-13T06:51:22;11.00;;;3.53;;
11427;SDS011;5770;44.504;11.346;2023-07-13T06:53:51;9.80;;;3.00;;
11427;SDS011;5770;44.504;11.346;2023-07-13T06:56:18;7.63;;;3.15;;
11427;SDS011;5770;44.504;11.346;2023-07-13T06:58:45;7.10;;;3.28;;
11427;SDS011;5770;44.504;11.346;2023-07-13T07:01:12;5.95;;;2.88;;
11427;SDS011;5770;44.504;11.346;2023-07-13T07:03:40;5.60;;;3.10;;
11427;SDS011;5770;44.504;11.346;2023-07-13T07:06:11;7.80;;;3.03;;
11427;SDS011;5770;44.504;11.346;2023-07-13T07:08:39;8.68;;;3.17;;
11427;SDS011;5770;44.504;11.346;2023-07-13T07:11:07;5.95;;;3.13;;
11427;SDS011;5770;44.504;11.346;2023-07-13T07:13:35;7.10;;;2.65;;
11427;SDS011;5770;44.504;11.346;2023-07-13T07:16:02;11.70;;;3.03;;
11427;SDS011;5770;44.504;11.346;2023-07-13T07:18:29;12.00;;;3.03;;
11427;SDS011;5770;44.504;11.346;2023-07-13T07:20:57;9.35;;;3.30;;
11427;SDS011;5770;44.504;11.346;2023-07-13T07:23:27;7.75;;;3.30;;
11427;SDS011;5770;44.504;11.346;2023-07-13T07:25:55;10.73;;;3.00;;
11427;SDS011;5770;44.504;11.346;2023-07-13T07:28:22;9.68;;;3.65;;
11427;SDS011;5770;44.504;11.346;2023-07-13T07:30:51;14.77;;;3.47;;
11427;SDS011;5770;44.504;11.346;2023-07-13T07:33:19;4.95;;;3.13;;
11427;SDS011;5770;44.504;11.346;2023-07-13T07:35:46;9.73;;;3.35;;
11427;SDS011;5770;44.504;11.346;2023-07-13T07:38:14;11.40;;;3.47;;
11427;SDS011;5770;44.504;11.346;2023-07-13T07:40:42;6.22;;;3.20;;
11427;SDS011;5770;44.504;11.346;2023-07-13T07:43:10;7.93;;;2.97;;
11427;SDS011;5770;44.504;11.346;2023-07-13T07:45:37;11.10;;;3.00;;
11427;SDS011;5770;44.504;11.346;2023-07-13T07:48:05;12.75;;;3.20;;
11427;SDS011;5770;44.504;11.346;2023-07-13T07:50:34;9.82;;;3.28;;
11427;SDS011;5770;44.504;11.346;2023-07-13T07:53:01;6.47;;;3.03;;
11427;SDS011;5770;44.504;11.346;2023-07-13T07:55:33;12.73;;;3.40;;
11427;SDS011;5770;44.504;11.346;2023-07-13T07:58:01;7.18;;;3.28;;
11427;SDS011;5770;44.504;11.346;2023-07-13T08:00:28;8.88;;;4.40;;
11427;SDS011;5770;44.504;11.346;2023-07-13T08:02:56;10.65;;;5.05;;
11427;SDS011;5770;44.504;11.346;2023-07-13T08:05:24;10.75;;;4.90;;
11427;SDS011;5770;44.504;11.346;2023-07-13T08:07:51;15.98;;;4.93;;
11427;SDS011;5770;44.504;11.346;2023-07-13T08:10:19;7.60;;;4.78;;
11427;SDS011;5770;44.504;11.346;2023-07-13T08:12:48;17.15;;;5.38;;
11427;SDS011;5770;44.504;11.346;2023-07-13T08:15:16;7.88;;;5.35;;
11427;SDS011;5770;44.504;11.346;2023-07-13T08:17:45;8.45;;;5.00;;
11427;SDS011;5770;44.504;11.346;2023-07-13T08:20:13;9.93;;;4.93;;
11427;SDS011;5770;44.504;11.346;2023-07-13T08:22:40;12.35;;;4.93;;
11427;SDS011;5770;44.504;11.346;2023-07-13T08:25:07;10.93;;;4.05;;
11427;SDS011;5770;44.504;11.346;2023-07-13T08:27:35;15.93;;;4.32;;
11427;SDS011;5770;44.504;11.346;2023-07-13T08:30:05;8.90;;;3.80;;
11427;SDS011;5770;44.504;11.346;2023-07-13T08:32:33;8.13;;;3.83;;
11427;SDS011;5770;44.504;11.346;2023-07-13T08:35:00;15.05;;;4.07;;
11427;SDS011;5770;44.504;11.346;2023-07-13T08:37:27;15.07;;;4.45;;
11427;SDS011;5770;44.504;11.346;2023-07-13T08:39:54;9.20;;;3.75;;
11427;SDS011;5770;44.504;11.346;2023-07-13T08:42:26;6.78;;;3.90;;
11427;SDS011;5770;44.504;11.346;2023-07-13T08:44:57;10.15;;;3.78;;
11427;SDS011;5770;44.504;11.346;2023-07-13T08:47:30;11.05;;;4.10;;
11427;SDS011;5770;44.504;11.346;2023-07-13T08:49:58;11.52;;;3.70;;
11427;SDS011;5770;44.504;11.346;2023-07-13T08:52:28;8.45;;;4.60;;
11427;SDS011;5770;44.504;11.346;2023-07-13T08:54:58;10.27;;;4.28;;
11427;SDS011;5770;44.504;11.346;2023-07-13T08:57:32;8.38;;;4.20;;
11427;SDS011;5770;44.504;11.346;2023-07-13T09:00:01;10.90;;;4.55;;
11427;SDS011;5770;44.504;11.346;2023-07-13T09:02:34;10.88;;;4.55;;
11427;SDS011;5770;44.504;11.346;2023-07-13T09:05:08;12.60;;;4.75;;
11427;SDS011;5770;44.504;11.346;2023-07-13T09:07:47;8.50;;;4.47;;
11427;SDS011;5770;44.504;11.346;2023-07-13T09:10:17;10.23;;;4.40;;
11427;SDS011;5770;44.504;11.346;2023-07-13T09:12:48;14.15;;;5.00;;
11427;SDS011;5770;44.504;11.346;2023-07-13T09:15:21;13.20;;;4.70;;
11427;SDS011;5770;44.504;11.346;2023-07-13T09:17:52;10.98;;;4.95;;
11427;SDS011;5770;44.504;11.346;2023-07-13T09:20:22;11.52;;;4.88;;
11427;SDS011;5770;44.504;11.346;2023-07-13T09:22:50;14.02;;;4.72;;
11427;SDS011;5770;44.504;11.346;2023-07-13T09:25:21;19.33;;;5.13;;
11427;SDS011;5770;44.504;11.346;2023-07-13T09:27:50;11.73;;;4.93;;
11427;SDS011;5770;44.504;11.346;2023-07-13T09:30:24;10.85;;;4.80;;
11427;SDS011;5770;44.504;11.346;2023-07-13T09:33:01;16.65;;;5.60;;
11427;SDS011;5770;44.504;11.346;2023-07-13T09:35:29;20.63;;;5.43;;
11427;SDS011;5770;44.504;11.346;2023-07-13T09:37:58;12.00;;;5.70;;
11427;SDS011;5770;44.504;11.346;2023-07-13T09:40:28;15.07;;;5.78;;
11427;SDS011;5770;44.504;11.346;2023-07-13T09:43:02;18.98;;;6.85;;
11427;SDS011;5770;44.504;11.346;2023-07-13T09:45:32;16.55;;;6.22;;
11427;SDS011;5770;44.504;11.346;2023-07-13T09:48:05;11.43;;;6.18;;
11427;SDS011;5770;44.504;11.346;2023-07-13T09:50:34;9.70;;;6.68;;
11427;SDS011;5770;44.504;11.346;2023-07-13T09:53:03;12.43;;;7.35;;
11427;SDS011;5770;44.504;11.346;2023-07-13T09:55:30;13.88;;;7.20;;
11427;SDS011;5770;44.504;11.346;2023-07-13T09:58:02;14.30;;;6.00;;
11427;SDS011;5770;44.504;11.346;2023-07-13T10:00:31;15.77;;;6.97;;
11427;SDS011;5770;44.504;11.346;2023-07-13T10:03:00;14.13;;;7.18;;
11427;SDS011;5770;44.504;11.346;2023-07-13T10:05:30;19.83;;;6.95;;
11427;SDS011;5770;44.504;11.346;2023-07-13T10:08:03;15.70;;;6.35;;
11427;SDS011;5770;44.504;11.346;2023-07-13T10:10:32;20.13;;;7.18;;
11427;SDS011;5770;44.504;11.346;2023-07-13T10:13:00;15.00;;;6.80;;
11427;SDS011;5770;44.504;11.346;2023-07-13T10:15:29;12.82;;;7.07;;
11427;SDS011;5770;44.504;11.346;2023-07-13T10:17:56;15.48;;;6.72;;
11427;SDS011;5770;44.504;11.346;2023-07-13T10:20:25;9.10;;;6.03;;
11427;SDS011;5770;44.504;11.346;2023-07-13T10:22:56;8.65;;;5.40;;
11427;SDS011;5770;44.504;11.346;2023-07-13T10:25:26;13.20;;;5.28;;
11427;SDS011;5770;44.504;11.346;2023-07-13T10:27:56;10.68;;;4.90;;
11427;SDS011;5770;44.504;11.346;2023-07-13T10:30:27;8.52;;;5.65;;
11427;SDS011;5770;44.504;11.346;2023-07-13T10:32:57;13.02;;;5.63;;
11427;SDS011;5770;44.504;11.346;2023-07-13T10:35:24;12.48;;;5.75;;
11427;SDS011;5770;44.504;11.346;2023-07-13T10:37:56;12.45;;;5.88;;
11427;SDS011;5770;44.504;11.346;2023-07-13T10:40:27;10.10;;;5.65;;
11427;SDS011;5770;44.504;11.346;2023-07-13T10:42:56;12.23;;;5.25;;
11427;SDS011;5770;44.504;11.346;2023-07-13T10:45:25;9.43;;;5.82;;
11427;SDS011;5770;44.504;11.346;2023-07-13T10:47:54;15.05;;;4.97;;
11427;SDS011;5770;44.504;11.346;2023-07-13T10:50:23;10.25;;;4.65;;
11427;SDS011;5770;44.504;11.346;2023-07-13T10:52:55;15.23;;;5.32;;
11427;SDS011;5770;44.504;11.346;2023-07-13T10:55:35;12.10;;;5.10;;
11427;SDS011;5770;44.504;11.346;2023-07-13T10:58:11;11.82;;;4.90;;
11427;SDS011;5770;44.504;11.346;2023-07-13T11:00:48;13.65;;;5.15;;
11427;SDS011;5770;44.504;11.346;2023-07-13T11:03:17;9.05;;;5.05;;
11427;SDS011;5770;44.504;11.346;2023-07-13T11:05:47;15.65;;;4.32;;
11427;SDS011;5770;44.504;11.346;2023-07-13T11:08:20;10.57;;;4.15;;
11427;SDS011;5770;44.504;11.346;2023-07-13T11:10:52;10.10;;;4.65;;
11427;SDS011;5770;44.504;11.346;2023-07-13T11:16:13;12.65;;;4.40;;
11427;SDS011;5770;44.504;11.346;2023-07-13T11:19:18;11.43;;;4.80;;
11427;SDS011;5770;44.504;11.346;2023-07-13T11:22:01;11.35;;;4.60;;
11427;SDS011;5770;44.504;11.346;2023-07-13T11:24:33;14.23;;;4.72;;
11427;SDS011;5770;44.504;11.346;2023-07-13T11:27:27;9.98;;;4.82;;
11427;SDS011;5770;44.504;11.346;2023-07-13T11:30:07;14.05;;;4.25;;
11427;SDS011;5770;44.504;11.346;2023-07-13T11:32:35;8.63;;;4.53;;
11427;SDS011;5770;44.504;11.346;2023-07-13T11:35:03;9.00;;;4.38;;
11427;SDS011;5770;44.504;11.346;2023-07-13T11:37:30;13.90;;;4.93;;
11427;SDS011;5770;44.504;11.346;2023-07-13T11:39:59;8.48;;;4.57;;
11427;SDS011;5770;44.504;11.346;2023-07-13T11:42:27;8.65;;;4.70;;
11427;SDS011;5770;44.504;11.346;2023-07-13T11:44:55;8.00;;;4.65;;
11427;SDS011;5770;44.504;11.346;2023-07-13T11:47:22;8.82;;;4.70;;
11427;SDS011;5770;44.504;11.346;2023-07-13T11:49:52;11.68;;;4.60;;
11427;SDS011;5770;44.504;11.346;2023-07-13T11:52:22;12.13;;;4.53;;
11427;SDS011;5770;44.504;11.346;2023-07-13T11:54:49;9.38;;;4.85;;
11427;SDS011;5770;44.504;11.346;2023-07-13T11:57:23;8.95;;;5.20;;
11427;SDS011;5770;44.504;11.346;2023-07-13T11:59:51;13.02;;;5.45;;
11427;SDS011;5770;44.504;11.346;2023-07-13T12:02:23;11.63;;;5.63;;
11427;SDS011;5770;44.504;11.346;2023-07-13T12:04:52;8.82;;;4.95;;
11427;SDS011;5770;44.504;11.346;2023-07-13T12:07:20;10.93;;;5.75;;
11427;SDS011;5770;44.504;11.346;2023-07-13T12:09:47;8.35;;;5.28;;
11427;SDS011;5770;44.504;11.346;2023-07-13T12:12:17;10.40;;;5.00;;
11427;SDS011;5770;44.504;11.346;2023-07-13T12:14:46;7.65;;;5.03;;
11427;SDS011;5770;44.504;11.346;2023-07-13T12:17:15;8.75;;;4.63;;
11427;SDS011;5770;44.504;11.346;2023-07-13T12:19:42;7.55;;;4.47;;
11427;SDS011;5770;44.504;11.346;2023-07-13T12:22:10;12.88;;;4.90;;
11427;SDS011;5770;44.504;11.346;2023-07-13T12:24:38;13.85;;;5.20;;
11427;SDS011;5770;44.504;11.346;2023-07-13T12:27:14;9.00;;;4.90;;
11427;SDS011;5770;44.504;11.346;2023-07-13T12:29:50;10.52;;;5.20;;
11427;SDS011;5770;44.504;11.346;2023-07-13T12:32:18;8.82;;;5.25;;
11427;SDS011;5770;44.504;11.346;2023-07-13T12:34:51;7.40;;;4.85;;
11427;SDS011;5770;44.504;11.346;2023-07-13T12:37:19;11.13;;;5.50;;
11427;SDS011;5770;44.504;11.346;2023-07-13T12:39:48;16.42;;;5.95;;
11427;SDS011;5770;44.504;11.346;2023-07-13T12:42:18;13.45;;;6.45;;
11427;SDS011;5770;44.504;11.346;2023-07-13T12:44:50;9.95;;;6.47;;
11427;SDS011;5770;44.504;11.346;2023-07-13T12:47:20;12.88;;;5.57;;
11427;SDS011;5770;44.504;11.346;2023-07-13T12:49:48;9.60;;;5.55;;
11427;SDS011;5770;44.504;11.346;2023-07-13T12:52:17;9.07;;;5.20;;
11427;SDS011;5770;44.504;11.346;2023-07-13T12:54:52;11.70;;;5.53;;
11427;SDS011;5770;44.504;11.346;2023-07-13T12:57:22;10.68;;;5.55;;
11427;SDS011;5770;44.504;11.346;2023-07-13T12:59:52;11.02;;;5.45;;
11427;SDS011;5770;44.504;11.346;2023-07-13T13:02:26;14.00;;;5.22;;
11427;SDS011;5770;44.504;11.346;2023-07-13T13:04:55;9.65;;;5.30;;
11427;SDS011;5770;44.504;11.346;2023-07-13T13:07:23;6.68;;;5.00;;
11427;SDS011;5770;44.504;11.346;2023-07-13T13:09:51;12.48;;;5.40;;
11427;SDS011;5770;44.504;11.346;2023-07-13T13:12:20;13.80;;;5.18;;
11427;SDS011;5770;44.504;11.346;2023-07-13T13:14:47;8.60;;;5.38;;
11427;SDS011;5770;44.504;11.346;2023-07-13T13:17:20;12.32;;;5.13;;
11427;SDS011;5770;44.504;11.346;2023-07-13T13:19:52;10.52;;;5.20;;
11427;SDS011;5770;44.504;11.346;2023-07-13T13:22:19;12.20;;;5.40;;
11427;SDS011;5770;44.504;11.346;2023-07-13T13:24:49;14.60;;;5.13;;
11427;SDS011;5770;44.504;11.346;2023-07-13T13:27:16;9.20;;;5.13;;
11427;SDS011;5770;44.504;11.346;2023-07-13T13:29:44;12.80;;;5.10;;
11427;SDS011;5770;44.504;11.346;2023-07-13T13:32:14;11.43;;;4.55;;
11427;SDS011;5770;44.504;11.346;2023-07-13T13:34:43;8.52;;;4.75;;
11427;SDS011;5770;44.504;11.346;2023-07-13T13:37:15;11.48;;;4.20;;
11427;SDS011;5770;44.504;11.346;2023-07-13T13:39:43;6.18;;;4.15;;
11427;SDS011;5770;44.504;11.346;2023-07-13T13:44:50;9.18;;;4.80;;
11427;SDS011;5770;44.504;11.346;2023-07-13T13:47:21;6.03;;;4.40;;
11427;SDS011;5770;44.504;11.346;2023-07-13T13:49:50;8.48;;;4.53;;
11427;SDS011;5770;44.504;11.346;2023-07-13T13:52:17;8.23;;;4.47;;
11427;SDS011;5770;44.504;11.346;2023-07-13T13:54:44;13.18;;;4.35;;
11427;SDS011;5770;44.504;11.346;2023-07-13T13:57:11;5.93;;;4.13;;
11427;SDS011;5770;44.504;11.346;2023-07-13T13:59:38;8.68;;;4.70;;
11427;SDS011;5770;44.504;11.346;2023-07-13T14:02:15;6.28;;;3.88;;
11427;SDS011;5770;44.504;11.346;2023-07-13T14:04:47;9.13;;;4.20;;
11427;SDS011;5770;44.504;11.346;2023-07-13T14:07:14;9.55;;;4.70;;
11427;SDS011;5770;44.504;11.346;2023-07-13T14:09:42;6.70;;;4.25;;
11427;SDS011;5770;44.504;11.346;2023-07-13T14:12:09;7.53;;;4.53;;
11427;SDS011;5770;44.504;11.346;2023-07-13T14:14:37;8.00;;;4.40;;
11427;SDS011;5770;44.504;11.346;2023-07-13T14:17:08;7.95;;;4.50;;
11427;SDS011;5770;44.504;11.346;2023-07-13T14:19:46;10.20;;;4.38;;
11427;SDS011;5770;44.504;11.346;2023-07-13T14:22:16;9.27;;;4.47;;
11427;SDS011;5770;44.504;11.346;2023-07-13T14:24:43;8.23;;;4.57;;
11427;SDS011;5770;44.504;11.346;2023-07-13T14:27:10;7.32;;;4.47;;
11427;SDS011;5770;44.504;11.346;2023-07-13T14:29:37;8.27;;;4.55;;
11427;SDS011;5770;44.504;11.346;2023-07-13T14:32:07;7.05;;;4.55;;
11427;SDS011;5770;44.504;11.346;2023-07-13T14:34:38;11.45;;;4.50;;
11427;SDS011;5770;44.504;11.346;2023-07-13T14:37:05;9.20;;;4.40;;
11427;SDS011;5770;44.504;11.346;2023-07-13T14:39:38;7.80;;;4.30;;
11427;SDS011;5770;44.504;11.346;2023-07-13T14:42:08;9.10;;;4.53;;
11427;SDS011;5770;44.504;11.346;2023-07-13T14:44:35;8.23;;;4.70;;
11427;SDS011;5770;44.504;11.346;2023-07-13T14:47:03;9.43;;;4.55;;
11427;SDS011;5770;44.504;11.346;2023-07-13T14:49:32;8.63;;;4.57;;
11427;SDS011;5770;44.504;11.346;2023-07-13T14:52:05;8.73;;;4.40;;
11427;SDS011;5770;44.504;11.346;2023-07-13T14:54:37;9.05;;;4.88;;
11427;SDS011;5770;44.504;11.346;2023-07-13T14:57:08;8.68;;;4.18;;